Queens Launch — WBJ9598 — position and weather

sailwx.info

Track history (hours):
 
Tides and Currents Weather Stations Pressure Air Temp Water Temp Dewpoint Dewpoint Depression Visibility Wind Speed Wind Dir Waves Ship Positions

Queens Launch

Owner: SEATTLE HARBOR TOURS/ARGOSY, SEATTLE, WA. More information available from US FCC via Universal Licensing System and Coast Guard Vessel Documentation Center.

Last reported at 2015-Jun-30 22:08 UTC. Time now 2015-Jul-04 13:41 UTC.
Position N 48°00' W 122°13'.

Length 12 m.

Type: Passenger vessel. MMSI: 367299090.

Date/timePositionNaut miles runAvg speedWind from/ knotsBaromVisibWave heightAir tempDewpointWater temp
2015-Jun-30 22:08N 48°00' W 122°13'0 0.1
2015-Jun-30 20:05N 48°00' W 122°14'0 0.0
2015-Jun-29 21:33N 48°00' W 122°14'0 0.1
2015-Jun-29 20:34N 48°00' W 122°13'7 5.7
2015-Jun-29 19:18N 47°55' W 122°20'5 7.1
2015-Jun-29 18:33N 47°50' W 122°23'1 7.3
2015-Jun-29 18:22N 47°49' W 122°24'6 7.3
2015-Jun-29 17:33N 47°43' W 122°24'1 7.1
2015-Jun-29 17:27N 47°42' W 122°25'2 2.5
2015-Jun-29 16:33N 47°40' W 122°23'0 6.5
2015-Jun-29 16:32N 47°40' W 122°23'2 1.9
2015-Jun-29 15:33N 47°39' W 122°21'0 0.3
2015-Jun-29 15:32N 47°39' W 122°21'  
2015-Jun-26 05:09N 47°38' W 122°20'1 2.4
2015-Jun-26 04:33N 47°39' W 122°21'0 6.3
2015-Jun-26 04:32N 47°39' W 122°21'5 4.4
2015-Jun-26 03:28N 47°38' W 122°15'0 2.9
2015-Jun-26 03:21N 47°38' W 122°15'4 4.3
2015-Jun-26 02:31N 47°39' W 122°20'0 0.0
2015-Jun-26 02:31N 47°39' W 122°20'1 1.0
2015-Jun-26 01:30N 47°38' W 122°20'0 0.0
2015-Jun-26 01:14N 47°38' W 122°20'0 0.0
2015-Jun-26 00:31N 47°38' W 122°20'  
2015-Jun-21 18:38N 47°38' W 122°20'1 6.3
2015-Jun-21 18:32N 47°38' W 122°20'0 0.0
2015-Jun-21 01:28N 47°38' W 122°20'0 0.8
2015-Jun-21 01:02N 47°38' W 122°20'2 5.1
2015-Jun-21 00:33N 47°39' W 122°17'1 1.2
2015-Jun-20 23:36N 47°40' W 122°15'1 6.9
2015-Jun-20 23:31N 47°39' W 122°16'  
Track history (hours):
 
Tides and Currents Weather Stations Pressure Air Temp Water Temp Dewpoint Dewpoint Depression Visibility Wind Speed Wind Dir Waves Ship Positions

Queens Launch

Owner: SEATTLE HARBOR TOURS/ARGOSY, SEATTLE, WA. More information available from US FCC via Universal Licensing System and Coast Guard Vessel Documentation Center.

Last reported at 2015-Jun-30 22:08 UTC. Time now 2015-Jul-04 13:41 UTC.
Position N 48°00' W 122°13'.

Length 12 m.

Type: Passenger vessel. MMSI: 367299090.

Date/timePositionNaut miles runAvg speedWind from/ knotsBaromVisibWave heightAir tempDewpointWater temp
2015-Jun-30 22:08N 48°00' W 122°13'0 0.1
2015-Jun-30 20:05N 48°00' W 122°14'0 0.0
2015-Jun-29 21:33N 48°00' W 122°14'0 0.1
2015-Jun-29 20:34N 48°00' W 122°13'7 5.7
2015-Jun-29 19:18N 47°55' W 122°20'5 7.1
2015-Jun-29 18:33N 47°50' W 122°23'1 7.3
2015-Jun-29 18:22N 47°49' W 122°24'6 7.3
2015-Jun-29 17:33N 47°43' W 122°24'1 7.1
2015-Jun-29 17:27N 47°42' W 122°25'2 2.5
2015-Jun-29 16:33N 47°40' W 122°23'0 6.5
2015-Jun-29 16:32N 47°40' W 122°23'2 1.9
2015-Jun-29 15:33N 47°39' W 122°21'0 0.3
2015-Jun-29 15:32N 47°39' W 122°21'  
2015-Jun-26 05:09N 47°38' W 122°20'1 2.4
2015-Jun-26 04:33N 47°39' W 122°21'0 6.3
2015-Jun-26 04:32N 47°39' W 122°21'5 4.4
2015-Jun-26 03:28N 47°38' W 122°15'0 2.9
2015-Jun-26 03:21N 47°38' W 122°15'4 4.3
2015-Jun-26 02:31N 47°39' W 122°20'0 0.0
2015-Jun-26 02:31N 47°39' W 122°20'1 1.0
2015-Jun-26 01:30N 47°38' W 122°20'0 0.0
2015-Jun-26 01:14N 47°38' W 122°20'0 0.0
2015-Jun-26 00:31N 47°38' W 122°20'  
2015-Jun-21 18:38N 47°38' W 122°20'1 6.3
2015-Jun-21 18:32N 47°38' W 122°20'0 0.0
2015-Jun-21 01:28N 47°38' W 122°20'0 0.8
2015-Jun-21 01:02N 47°38' W 122°20'2 5.1
2015-Jun-21 00:33N 47°39' W 122°17'1 1.2
2015-Jun-20 23:36N 47°40' W 122°15'1 6.9
2015-Jun-20 23:31N 47°39' W 122°16'  

Dump ship's entire track history